Home > Products > Valid Products > MTR

000
SAUS41 KPHI 202255
MTRACY
METAR KACY 202254Z AUTO 06013KT 10SM CLR 08/M03 A3038 RMK AO2 SLP289
T00781033 TSNO





000
SAUS41 KPHI 202255
MTR12N
METAR K12N 202254Z AUTO 16008KT 12/M03 A3036 RMK AO1 SLP285
T01171028





000
SAUS41 KPHI 202155
MTR12N
METAR K12N 202154Z AUTO 16008KT 13/M03 A3037 RMK AO1 SLP288
T01331033





000
SAUS41 KPHI 202155
MTRACY
METAR KACY 202154Z 06016KT 10SM CLR 09/M03 A3040 RMK AO2 SLP294
T00891028





000
SAUS41 KPHI 202055
MTR12N
METAR K12N 202054Z AUTO 15/M03 A3037 RMK AO1 SLP287 T01501028 56017





000
SAUS41 KPHI 202055
MTRACY
METAR KACY 202054Z 06015G22KT 10SM CLR 10/M03 A3041 RMK AO2 SLP296
T01001028 56015





000
SAUS41 KPHI 201956
MTRACY
METAR KACY 201954Z 06016G22KT 10SM CLR 11/M01 A3041 RMK AO2 SLP297
T01111011





000
SAUS41 KPHI 201955
MTR12N
METAR K12N 201954Z AUTO VRB05KT 16/M03 A3037 RMK AO1 SLP288
T01561028





000
SAUS41 KPHI 201855
MTR12N
METAR K12N 201854Z AUTO VRB03KT 15/M04 A3040 RMK AO1 SLP296
T01501039





000
SAUS41 KPHI 201855
MTRACY
METAR KACY 201854Z 08013G21KT 10SM CLR 10/M02 A3043 RMK AO2 SLP305
T01001017





000
SAUS41 KPHI 201755
MTR12N
METAR K12N 201754Z AUTO 00000KT 14/M04 A3042 RMK AO1 SLP304
T01391039 10139 20067 58018





000
SAUS41 KPHI 201755
MTRACY
METAR KACY 201754Z 05014G21KT 10SM CLR 11/M02 A3045 RMK AO2 SLP311
T01111017 10117 20089 58004





000
SAUS41 KPHI 201655
MTRACY
METAR KACY 201654Z 08015KT 10SM CLR 11/M02 A3046 RMK AO2 PK WND
07026/1621 SLP315 T01061017





000
SAUS41 KPHI 201655
MTR12N
METAR K12N 201654Z AUTO VRB04KT 13/M03 A3044 RMK AO1 SLP311
T01331033





000
SAUS41 KPHI 201557
MTRACY
METAR KACY 201554Z 09018G24KT 10SM CLR 11/M01 A3048 RMK AO2 PK WND
10026/1543 SLP322 T01061006





000
SAUS41 KPHI 201555
MTR12N
METAR K12N 201554Z AUTO 16006KT 12/M03 A3046 RMK AO1 SLP316
T01221033





000
SAUS41 KPHI 201456
MTR12N
METAR K12N 201454Z AUTO VRB05KT 12/M03 A3048 RMK AO1 SLP323
T01171033 53003





000
SAUS41 KPHI 201456
MTRACY
METAR KACY 201454Z 08017G24KT 10SM CLR 11/01 A3046 RMK AO2 SLP314
T01110011 51018





000
SAUS41 KPHI 201356
MTRACY
METAR KACY 201354Z 07017G25KT 10SM CLR 10/01 A3045 RMK AO2 PK WND
06026/1257 SLP309 T01000011





000
SAUS41 KPHI 201355
MTR12N
METAR K12N 201354Z AUTO 10/M04 A3047 RMK AO1 SLP323 T01001039





000
SAUS41 KPHI 201257
MTRACY
METAR KACY 201254Z 06018G29KT 10SM CLR 09/01 A3042 RMK AO2 PK WND
06029/1247 SLP302 T00940011





000
SAUS41 KPHI 201255
MTR12N
METAR K12N 201254Z AUTO 00000KT 09/M04 A3047 RMK AO1 SLP322
T00891039





000
SAUS41 KPHI 201155
MTR12N
METAR K12N 201154Z AUTO VRB03KT 07/M02 A3047 RMK AO1 SLP321
T00671017 10083 20039 53018





000
SAUS41 KPHI 201155
MTRACY
METAR KACY 201154Z 07018G23KT 10SM CLR 09/01 A3041 RMK AO2 SLP296
T00890011 10089 20050 51017





000
SAUS41 KPHI 201057
MTRACY
METAR KACY 201054Z 06013G24KT 10SM CLR 08/01 A3039 RMK AO2 SLP291
T00780006





000
SAUS41 KPHI 201055
MTR12N
METAR K12N 201054Z AUTO 04004KT 04/M02 A3045 RMK AO1 SLP315
T00441022





000
SAUS41 KPHI 200956
MTRACY
METAR KACY 200954Z AUTO 08015KT 10SM CLR 08/03 A3038 RMK AO2 SLP286
T00830028 TSNO





000
SAUS41 KPHI 200955
MTR12N
METAR K12N 200954Z AUTO 04004KT 04/M02 A3043 RMK AO1 SLP307
T00441022





000
SAUS41 KPHI 200855
MTRACY
METAR KACY 200854Z AUTO 06009KT 10SM CLR 07/00 A3036 RMK AO2 SLP279
T00670000 53012 TSNO





000
SAUS41 KPHI 200855
MTR12N
METAR K12N 200854Z AUTO 04005KT 05/M03 A3041 RMK AO1 SLP301
T00501033 51011





000
SAUS41 KPHI 200757
MTRACY
METAR KACY 200754Z 01009KT 10SM CLR 07/00 A3033 RMK AO2 SLP270
T00720000





000
SAUS41 KPHI 200755
MTR12N
METAR K12N 200754Z AUTO 04004KT 06/M03 A3040 RMK AO1 SLP297
T00561033





000
SAUS41 KPHI 200655
MTRACY
METAR KACY 200654Z 02007KT 10SM CLR 07/02 A3033 RMK AO2 SLP270
T00670017





000
SAUS41 KPHI 200655
MTR12N
METAR K12N 200654Z AUTO 03004KT 07/M03 A3039 RMK AO1 SLP293
T00721028





000
SAUS41 KPHI 200556
MTRACY
METAR KACY 200554Z 01007KT 10SM CLR 05/02 A3032 RMK AO2 SLP268
T00500017 10111 20044 53003





000
SAUS41 KPHI 200555
MTR12N
METAR K12N 200554Z AUTO VRB06KT 08/M04 A3038 RMK AO1 SLP289
T00831039 10128 20067 53009





000
SAUS41 KPHI 200457
MTRACY
METAR KACY 200454Z 00000KT 10SM CLR 06/03 A3032 RMK AO2 SLP268
T00610028 402000011





000
SAUS41 KPHI 200455
MTR12N
METAR K12N 200454Z AUTO 03004KT 08/M02 A3037 RMK AO1 SLP284
T00831022 401780017





000
SAUS41 KPHI 200357
MTRACY
METAR KACY 200354Z 00000KT 10SM CLR 05/02 A3031 RMK AO2 SLP263
T00500017





000
SAUS41 KPHI 200355
MTR12N
METAR K12N 200354Z AUTO 00000KT 07/01 A3036 RMK AO1 SLP282 T00720006





000
SAUS41 KPHI 200257
MTRACY
METAR KACY 200254Z 32003KT 10SM CLR 06/03 A3031 RMK AO2 SLP264
T00610028 51013





000
SAUS41 KPHI 200255
MTR12N
METAR K12N 200254Z AUTO 00000KT 08/M01 A3035 RMK AO1 SLP281
T00831006 51023





000
SAUS41 KPHI 200155
MTRACY
METAR KACY 200154Z 00000KT 10SM CLR 07/03 A3031 RMK AO2 SLP262
T00720028





000
SAUS41 KPHI 200155
MTR12N
METAR K12N 200154Z AUTO 01003KT 09/01 A3034 RMK AO1 SLP276 T00890011





000
SAUS41 KPHI 200057
MTRACY
METAR KACY 200054Z 00000KT 10SM CLR 10/03 A3029 RMK AO2 SLP257
T01000028





000
SAUS41 KPHI 200055
MTR12N
METAR K12N 200054Z AUTO 00000KT 10/00 A3031 RMK AO1 SLP266 T01000000





000
SAUS41 KPHI 192355
MTRACY
METAR KACY 192354Z 18005KT 10SM CLR 11/03 A3027 RMK AO2 SLP251
T01110028 10200 20100 51009





000
SAUS41 KPHI 192355
MTR12N
METAR K12N 192354Z AUTO 00000KT 13/M04 A3028 RMK AO1 SLP257
T01281044 10178 20128 51014





000
SAUS41 KPHI 192255
MTR12N
METAR K12N 192254Z AUTO 35004KT 15/M04 A3027 RMK AO1 SLP255
T01501044





000
SAUS41 KPHI 192255
MTRACY
METAR KACY 192254Z AUTO 10004KT 10SM CLR 12/02 A3026 RMK AO2 SLP248
T01170022 TSNO





000
SAUS41 KPHI 192156
MTRACY
METAR KACY 192154Z 14007KT 10SM CLR 13/01 A3026 RMK AO2 SLP247
T01330011





000
SAUS41 KPHI 192155
MTR12N
METAR K12N 192154Z AUTO 17/M06 A3026 RMK AO1 SLP250 T01671056





000
SAUS41 KPHI 192057
MTRACY
METAR KACY 192054Z 09009KT 10SM CLR 14/02 A3025 RMK AO2 SLP241
T01440017 51008





000
SAUS41 KPHI 192055
MTR12N
METAR K12N 192054Z AUTO 01008KT 340V060 17/M06 A3024 RMK AO1 SLP243
T01721056 56002





000
SAUS41 KPHI 191955
MTR12N
METAR K12N 191954Z AUTO VRB05G16KT 17/M05 A3024 RMK AO1 SLP244
T01721050





000
SAUS41 KPHI 191955
MTRACY
METAR KACY 191954Z 11009KT 10SM CLR 15/03 A3024 RMK AO2 SLP239
T01500028





000
SAUS41 KPHI 191856
MTRACY
METAR KACY 191854Z 13012KT 10SM CLR 17/05 A3023 RMK AO2 SLP237
T01670050





000
SAUS41 KPHI 191855
MTR12N
METAR K12N 191854Z AUTO 03005G16KT 17/M04 A3024 RMK AO1 SLP243
T01671039





000
SAUS41 KPHI 191756
MTRACY
METAR KACY 191754Z 02013KT 10SM CLR 20/M01 A3022 RMK AO2 SLP233
T02001011 10200 20050 56022





000
SAUS41 KPHI 191755
MTR12N
METAR K12N 191754Z AUTO 01009G16KT 17/M04 A3025 RMK AO1 SLP245
T01671039 10167 20078 58018





000
SAUS41 KPHI 191656
MTRACY
METAR KACY 191654Z 34010KT 10SM CLR 19/01 A3023 RMK AO2 SLP237
T01890011





000
SAUS41 KPHI 191655
MTR12N
METAR K12N 191654Z AUTO VRB06KT 15/M02 A3026 RMK AO1 SLP251
T01501022





000
SAUS41 KPHI 191557
MTRACY
METAR KACY 191554Z VRB06KT 10SM CLR 16/01 A3027 RMK AO2 SLP248
T01610011





000
SAUS41 KPHI 191555
MTR12N
METAR K12N 191554Z AUTO 03008KT 330V050 14/M03 A3029 RMK AO1 SLP259
T01391028





000
SAUS41 KPHI 191457
MTRACY
METAR KACY 191454Z 35008KT 10SM CLR 14/04 A3029 RMK AO2 SLP255
T01390044 50001





000
SAUS41 KPHI 191455
MTR12N
METAR K12N 191454Z AUTO 01009KT 13/M04 A3030 RMK AO1 SLP264
T01281039 51008





000
SAUS41 KPHI 191356
MTRACY
METAR KACY 191354Z 33005KT 10SM CLR 10/04 A3030 RMK AO2 SLP261
T01000044





000
SAUS41 KPHI 191355
MTR12N
METAR K12N 191354Z AUTO 03006KT 12/M01 A3029 RMK AO1 SLP261
T01171011





000
SAUS41 KPHI 191255
MTR12N
METAR K12N 191254Z AUTO 03006KT 10/02 A3029 RMK AO1 SLP260 T01000022





000
SAUS41 KPHI 191255
MTRACY
METAR KACY 191254Z AUTO 29004KT 10SM CLR 08/05 A3028 RMK AO2 SLP255
T00780050 TSNO





000
SAUS41 KPHI 191156
MTRACY
METAR KACY 191154Z AUTO 00000KT 10SM CLR 05/04 A3028 RMK AO2 SLP254
T00500039 10050 20011 53008 TSNO





000
SAUS41 KPHI 191155
MTR12N
METAR K12N 191154Z AUTO VRB03KT 07/03 A3028 RMK AO1 SLP257 T00720033
10072 20017 53017





000
SAUS41 KPHI 191057
MTRACY
METAR KACY 191054Z AUTO 00000KT 10SM CLR 02/01 A3027 RMK AO2 SLP250
T00170011 TSNO





000
SAUS41 KPHI 191055
MTR12N
METAR K12N 191054Z AUTO 00000KT 02/01 A3026 RMK AO1 SLP252 T00220006





000
SAUS41 KPHI 190956
MTRACY
METAR KACY 190954Z AUTO 00000KT 10SM CLR 03/02 A3025 RMK AO2 SLP245
T00280017 TSNO





000
SAUS41 KPHI 190955
MTR12N
METAR K12N 190954Z AUTO 00000KT 02/01 A3023 RMK AO1 SLP244 T00220006





000
SAUS41 KPHI 190855
MTR12N
METAR K12N 190854Z AUTO 00000KT 03/02 A3022 RMK AO1 SLP239 T00330017
56005





000
SAUS41 KPHI 190855
MTRACY
METAR KACY 190854Z 05003KT 9SM CLR 02/01 A3026 RMK AO2 SLP246
T00220011 56006





000
SAUS41 KPHI 190757
MTRACY
METAR KACY 190754Z 35004KT 10SM CLR 02/01 A3026 RMK AO2 SLP247
T00170006





000
SAUS41 KPHI 190755
MTR12N
METAR K12N 190754Z AUTO 00000KT 03/02 A3023 RMK AO1 SLP243 T00330017





000
SAUS41 KPHI 190655
MTR12N
METAR K12N 190654Z AUTO 00000KT 04/01 A3022 RMK AO1 SLP239 T00390006





000
SAUS41 KPHI 190655
MTRACY
METAR KACY 190654Z 00000KT 10SM CLR 03/02 A3026 RMK AO2 SLP246
T00330017





000
SAUS41 KPHI 190555
MTRACY
METAR KACY 190554Z 00000KT 10SM CLR 04/02 A3027 RMK AO2 SLP252
T00390017 10056 20033 56013





000
SAUS41 KPHI 190555
MTR12N
METAR K12N 190554Z AUTO 00000KT 04/01 A3024 RMK AO1 SLP245 T00440006
10083 20039 58003





000
SAUS41 KPHI 190455
MTRACY
METAR KACY 190454Z 00000KT 10SM CLR 03/01 A3027 RMK AO2 SLP252
T00330011 400940033





000
SAUS41 KPHI 190455
MTR12N
METAR K12N 190454Z AUTO 00000KT 04/01 A3025 RMK AO1 SLP250 T00440006
401061017





000
SAUS41 KPHI 190357
MTRACY
METAR KACY 190354Z 24003KT 10SM CLR 05/02 A3030 RMK AO2 SLP261
T00500022





000
SAUS41 KPHI 190355
MTR12N
METAR K12N 190354Z AUTO 00000KT 06/01 A3024 RMK AO1 SLP247 T00560006





000
SAUS41 KPHI 190257
MTRACY
METAR KACY 190254Z 17003KT 8SM CLR 05/02 A3031 RMK AO2 SLP265
T00500022 56005





000
SAUS41 KPHI 190255
MTR12N
METAR K12N 190254Z AUTO 00000KT 06/01 A3025 RMK AO1 SLP249 T00610006
58008





000
SAUS41 KPHI 190157
MTRACY
METAR KACY 190154Z 36003KT 10SM CLR 04/02 A3031 RMK AO2 SLP265
T00440017





000
SAUS41 KPHI 190155
MTR12N
METAR K12N 190154Z AUTO 00000KT 06/M01 A3026 RMK AO1 SLP255
T00611006





000
SAUS41 KPHI 190103
MTRACY
SPECI KACY 190102Z 17005KT 10SM FEW014 FEW110 05/02 A3032 RMK AO2
T00500022





000
SAUS41 KPHI 190057
MTRACY
METAR KACY 190054Z 17004KT 10SM FEW110 05/02 A3032 RMK AO2 PRESRR
SLP268 T00500022





000
SAUS41 KPHI 190055
MTR12N
METAR K12N 190054Z AUTO 00000KT 07/M01 A3028 RMK AO1 SLP260
T00721011





000
SAUS41 KPHI 182355
MTR12N
METAR K12N 182354Z AUTO 00000KT 08/M02 A3027 RMK AO1 SLP258
T00831017 10106 20083 56016





000
SAUS41 KPHI 182355
MTRACY
METAR KACY 182354Z 09004KT 10SM CLR 04/02 A3033 RMK AO2 SLP270
T00440017 10094 20044 58011





000
SAUS41 KPHI 182257
MTRACY
METAR KACY 182254Z 10006KT 10SM CLR 06/02 A3034 RMK AO2 SLP273
T00560017





000
SAUS41 KPHI 182255
MTR12N
METAR K12N 182254Z AUTO 20005KT 09/M02 A3028 RMK AO1 SLP262
T00941017





000
SAUS41 KPHI 182157
MTRACY
METAR KACY 182154Z 08008KT 10SM CLR 07/02 A3035 RMK AO2 SLP278
T00670017





000
SAUS41 KPHI 182156
MTR12N
METAR K12N 182154Z AUTO 21006KT 11/M03 A3030 RMK AO1 SLP266
T01061033





000
SAUS41 KPHI 182057
MTRACY
METAR KACY 182054Z 12008KT 10SM CLR 08/02 A3036 RMK AO2 SLP281
T00830017 56027





000
SAUS41 KPHI 182055
MTR12N
METAR K12N 182054Z AUTO VRB03KT 11/M04 A3032 RMK AO1 SLP275
T01061039 56030





000
SAUS41 KPHI 181956
MTRACY
METAR KACY 181954Z 11010KT 10SM CLR 09/02 A3038 RMK AO2 SLP287
T00890022





000
SAUS41 KPHI 181955
MTR12N
METAR K12N 181954Z AUTO VRB04KT 10/M04 A3034 RMK AO1 SLP280
T01001039





000
SAUS41 KPHI 181856
MTRACY
METAR KACY 181854Z 08004KT 10SM FEW026 08/02 A3041 RMK AO2 SLP299
T00830022





000
SAUS41 KPHI 181855
MTR12N
METAR K12N 181854Z AUTO VRB06KT 10/M03 A3037 RMK AO1 SLP291
T01001033





000
SAUS41 KPHI 181842
MTRACY
SPECI KACY 181840Z VRB03KT 10SM SCT024 09/02 A3042 RMK AO2 T00890017





000
SAUS41 KPHI 181756
MTRACY
METAR KACY 181754Z 09005KT 10SM OVC024 08/02 A3044 RMK AO2 SLP308
T00780017 10083 20044 58016





000
SAUS41 KPHI 181755
MTR12N
METAR K12N 181754Z AUTO VRB04KT 08/M04 A3041 RMK AO1 SLP306
T00831039 10089 20011 58018





000
SAUS41 KPHI 181656
MTR12N
METAR K12N 181654Z AUTO 21007KT 07/M04 A3043 RMK AO1 SLP312
T00721039





000
SAUS41 KPHI 181655
MTRACY
METAR KACY 181654Z 06004KT 10SM OVC024 08/02 A3047 RMK AO2 SLP318
T00830017





000
SAUS41 KPHI 181556
MTRACY
METAR KACY 181554Z 06011KT 10SM OVC025 08/01 A3047 RMK AO2 SLP317
T00780011





000
SAUS41 KPHI 181555
MTR12N
METAR K12N 181554Z AUTO VRB04KT 06/M04 A3045 RMK AO1 SLP320
T00611039





000
SAUS41 KPHI 181456
MTR12N
METAR K12N 181454Z AUTO 00000KT 04/M03 A3047 RMK AO1 SLP326
T00441033 58021





000
SAUS41 KPHI 181455
MTRACY
METAR KACY 181454Z 07013KT 10SM OVC024 07/01 A3049 RMK AO2 SLP324
T00720011 58012





000
SAUS41 KPHI 181357
MTRACY
METAR KACY 181354Z 10012KT 10SM OVC022 06/01 A3049 RMK AO2 SLP326
T00610006





000
SAUS41 KPHI 181355
MTR12N
METAR K12N 181354Z AUTO 00000KT 04/M03 A3050 RMK AO1 SLP337
T00391033





000
SAUS41 KPHI 181255
MTR12N
METAR K12N 181254Z AUTO 13003KT 02/M03 A3053 RMK AO1 SLP349
T00221028





000
SAUS41 KPHI 181255
MTRACY
METAR KACY 181254Z 05008KT 10SM OVC021 05/00 A3052 RMK AO2 SLP335
T00500000





000
SAUS41 KPHI 181157
MTRACY
METAR KACY 181154Z 03009KT 10SM OVC021 04/00 A3052 RMK AO2 SLP336
T00440000 10044 20039 53015





000
SAUS41 KPHI 181155
MTR12N
METAR K12N 181154Z AUTO 16004KT 01/M02 A3053 RMK AO1 SLP348
T00111017 10022 21017 53013





000
SAUS41 KPHI 181055
MTRACY
METAR KACY 181054Z 03005KT 10SM OVC019 04/00 A3052 RMK AO2 SLP334
T00390000





000
SAUS41 KPHI 181055
MTR12N
METAR K12N 181054Z AUTO 00000KT M01/M02 A3051 RMK AO1 SLP340
T10061017





000
SAUS41 KPHI 180955
MTR12N
METAR K12N 180954Z AUTO 00000KT M01/M02 A3050 RMK AO1 SLP337
T10111022





000
SAUS41 KPHI 180955
MTRACY
METAR KACY 180954Z AUTO 03009KT 10SM OVC019 04/00 A3048 RMK AO2
SLP321 T00390000 TSNO





000
SAUS41 KPHI 180855
MTRACY
METAR KACY 180854Z 04006KT 10SM OVC018 04/00 A3048 RMK AO2 SLP321
T00390000 56031





000
SAUS41 KPHI 180855
MTR12N
METAR K12N 180854Z AUTO 00000KT M01/M02 A3049 RMK AO1 SLP333
T10061017 56036





000
SAUS41 KPHI 180757
MTRACY
METAR KACY 180754Z 05007KT 10SM OVC020 04/00 A3050 RMK AO2 SLP328
T00390000





000
SAUS41 KPHI 180755
MTR12N
METAR K12N 180754Z AUTO 07003KT 01/M01 A3051 RMK AO1 PRESFR SLP337
T00061006





000
SAUS41 KPHI 180655
MTRACY
METAR KACY 180654Z 07008KT 10SM OVC020 04/M01 A3053 RMK AO2 SLP338
T00391006





000
SAUS41 KPHI 180655
MTR12N
METAR K12N 180654Z AUTO 00000KT 01/M01 A3055 RMK AO1 SLP354
T00111006





000
SAUS41 KPHI 180557
MTRACY
METAR KACY 180554Z 06006KT 10SM OVC021 04/00 A3057 RMK AO2 SLP352
T00390000 10044 20028 58002





000
SAUS41 KPHI 180555
MTR12N
METAR K12N 180554Z AUTO 00000KT 02/M01 A3060 RMK AO1 SLP369
T00221006 10050 20017 55000





000
SAUS41 KPHI 180456
MTRACY
METAR KACY 180454Z 07007KT 10SM OVC022 04/M01 A3060 RMK AO2 SLP361
T00391006 400781022





000
SAUS41 KPHI 180455
MTR12N
METAR K12N 180454Z AUTO 00000KT 02/M01 A3059 RMK AO1 SLP364
T00221006 401001017





000
SAUS41 KPHI 180356
MTRACY
METAR KACY 180354Z 08009KT 10SM OVC022 04/M01 A3058 RMK AO2 SLP355
T00391006





000
SAUS41 KPHI 180355
MTR12N
METAR K12N 180354Z AUTO 00000KT 02/M01 A3058 RMK AO1 SLP364
T00221006





000
SAUS41 KPHI 180257
MTRACY
METAR KACY 180254Z 08010KT 10SM BKN024 04/M01 A3058 RMK AO2 SLP355
T00391011 58016





000
SAUS41 KPHI 180256
MTR12N
METAR K12N 180254Z AUTO 00000KT 02/M01 A3060 RMK AO1 SLP371
T00171011 58005





000
SAUS41 KPHI 180207
MTRACY
SPECI KACY 180205Z 07011KT 10SM BKN024 04/M01 A3060 RMK AO2
T00391011





000
SAUS41 KPHI 180156
MTRACY
METAR KACY 180154Z 06011KT 10SM SCT024 03/M01 A3060 RMK AO2 SLP363
T00331011





000
SAUS41 KPHI 180155
MTR12N
METAR K12N 180154Z AUTO 17004KT 03/M01 A3061 RMK AO1 SLP372
T00281011





000
SAUS41 KPHI 180055
MTRACY
METAR KACY 180054Z 07008KT 10SM CLR 03/M01 A3063 RMK AO2 SLP371
T00281011





000
SAUS41 KPHI 180055
MTR12N
METAR K12N 180054Z AUTO 00000KT 04/M02 A3061 RMK AO1 SLP374
T00391017





000
SAUS41 KPHI 172355
MTRACY
METAR KACY 172354Z 06009KT 10SM CLR 03/M02 A3063 RMK AO2 SLP371
T00331017 10078 20033 56006





000
SAUS41 KPHI 172355
MTR12N
METAR K12N 172354Z AUTO VRB03KT 05/M02 A3061 RMK AO1 SLP376
T00501022 10100 20050 50001





    US Dept of Commerce
    National Oceanic and Atmospheric Administration
    National Weather Service
    1325 East West Highway
    Silver Spring, MD 20910
    Page Author: NWS Internet Services Team
Disclaimer
Information Quality
Credits
Glossary
Privacy Policy
Freedom of Information Act (FOIA)
About Us
Career Opportunities